Chantaco — FMLM — position and weather

sailwx.info

Track history (hours):
 
Tides and Currents Weather Stations Pressure Air Temp Water Temp Dewpoint Dewpoint Depression Visibility Wind Speed Wind Dir Waves Ship Positions

Chantaco

Last reported at 2016-Jul-29 04:33 UTC. Time now 2016-Jul-29 05:55 UTC.
Position N 47°08' W 002°28'.

Length 143 m; draft 6.5 m.

Type: Tanker. MMSI: 228330700.

Date/timePositionNaut miles runAvg speedWind from/ knotsBaromVisibWave heightAir tempDewpointWater temp
2016-Jul-29 04:33N 47°08' W 002°28'0 0.0
2016-Jul-29 03:34N 47°08' W 002°28'0 0.0
2016-Jul-29 02:33N 47°08' W 002°28'0 0.0
2016-Jul-29 01:33N 47°08' W 002°28'0 0.0
2016-Jul-29 00:33N 47°08' W 002°28'0 0.0
2016-Jul-28 23:30N 47°08' W 002°28'0 0.0
2016-Jul-28 22:32N 47°08' W 002°28'0 0.0
2016-Jul-28 21:33N 47°08' W 002°28'0 0.0
2016-Jul-28 20:33N 47°08' W 002°28'0 0.0
2016-Jul-28 19:30N 47°08' W 002°28'0 0.0
2016-Jul-28 18:30N 47°08' W 002°28'0 0.0
2016-Jul-28 17:33N 47°08' W 002°28'0 0.0
2016-Jul-28 16:32N 47°08' W 002°28'0 0.1
2016-Jul-28 15:30N 47°08' W 002°28'0 0.0
2016-Jul-28 14:32N 47°08' W 002°28'0 0.0
2016-Jul-28 13:32N 47°08' W 002°28'0 0.1
2016-Jul-28 12:32N 47°08' W 002°28'0 0.0
2016-Jul-28 11:30N 47°08' W 002°28'0 0.0
2016-Jul-28 10:33N 47°08' W 002°28'0 0.0
2016-Jul-28 09:33N 47°08' W 002°28'0 0.0
2016-Jul-28 08:32N 47°08' W 002°28'0 0.0
2016-Jul-28 07:32N 47°08' W 002°28'0 0.0
2016-Jul-28 06:33N 47°08' W 002°28'0 0.0
2016-Jul-28 05:33N 47°08' W 002°28'0 0.1
2016-Jul-28 04:32N 47°08' W 002°28'0 0.1
2016-Jul-28 03:33N 47°08' W 002°28'0 0.0
2016-Jul-28 02:26N 47°08' W 002°28'0 0.1
2016-Jul-28 01:33N 47°08' W 002°28'0 0.0
2016-Jul-28 00:32N 47°08' W 002°28'0 0.1
2016-Jul-27 23:32N 47°08' W 002°28'0 0.0
2016-Jul-27 22:33N 47°08' W 002°28'0 0.0
2016-Jul-27 21:33N 47°08' W 002°28'0 0.0
2016-Jul-27 20:32N 47°08' W 002°28'0 0.0
2016-Jul-27 19:33N 47°08' W 002°28'0 0.3
2016-Jul-27 18:34N 47°08' W 002°28'10 9.8
2016-Jul-27 17:33N 47°14' W 002°16'8 4.1
2016-Jul-27 15:32N 47°18' W 002°06'0 0.0
2016-Jul-27 13:26N 47°18' W 002°06'0 0.0
2016-Jul-27 11:32N 47°18' W 002°06'0 0.0
2016-Jul-27 10:14N 47°18' W 002°06'0 0.0
2016-Jul-27 09:29N 47°18' W 002°06'0 0.0
2016-Jul-27 08:32N 47°18' W 002°06'0 0.0
2016-Jul-27 07:26N 47°18' W 002°06'0 0.0
2016-Jul-27 06:32N 47°18' W 002°06'0 0.0
2016-Jul-27 05:32N 47°18' W 002°06'0 0.0
2016-Jul-27 04:32N 47°18' W 002°06'0 0.0
2016-Jul-27 03:32N 47°18' W 002°06'0 0.0
2016-Jul-27 02:32N 47°18' W 002°06'0 0.0
2016-Jul-27 01:32N 47°18' W 002°06'0 0.0
2016-Jul-27 00:32N 47°18' W 002°06'0 0.0
2016-Jul-26 23:32N 47°18' W 002°06'0 0.0
2016-Jul-26 22:32N 47°18' W 002°06'0 0.0
2016-Jul-26 21:32N 47°18' W 002°06'0 0.0
2016-Jul-26 20:32N 47°18' W 002°06'0 0.0
2016-Jul-26 19:32N 47°18' W 002°06'0 0.0
2016-Jul-26 18:32N 47°18' W 002°06'0 0.0
2016-Jul-26 17:23N 47°18' W 002°06'0 0.0
2016-Jul-26 16:23N 47°18' W 002°06'0 0.0
2016-Jul-26 15:20N 47°18' W 002°06'0 0.0
2016-Jul-26 14:26N 47°18' W 002°06'0 0.0
2016-Jul-26 10:29N 47°18' W 002°06'0 0.0
2016-Jul-26 09:32N 47°18' W 002°06'0 0.0
2016-Jul-26 08:33N 47°18' W 002°06'3 2.9
2016-Jul-26 07:33N 47°17' W 002°10'10 9.8
2016-Jul-26 06:33N 47°10' W 002°19'6 5.9
2016-Jul-26 05:32N 47°07' W 002°27'0 0.0
2016-Jul-26 04:33N 47°07' W 002°27'0 0.0
2016-Jul-26 03:33N 47°07' W 002°27'0 0.1
2016-Jul-26 02:29N 47°07' W 002°27'0 0.1
2016-Jul-26 01:29N 47°07' W 002°27'0 0.0
2016-Jul-26 00:33N 47°07' W 002°27'0 0.0
2016-Jul-25 23:34N 47°07' W 002°27'0 0.0
2016-Jul-25 22:29N 47°07' W 002°27'0 0.1
2016-Jul-25 21:33N 47°07' W 002°27'0 0.1
2016-Jul-25 20:30N 47°07' W 002°27'0 0.0
2016-Jul-25 19:33N 47°07' W 002°27'0 0.0
2016-Jul-25 18:31N 47°07' W 002°27'0 0.0
2016-Jul-25 17:31N 47°07' W 002°27'0 0.0
2016-Jul-25 16:33N 47°07' W 002°27'0 0.0
2016-Jul-25 15:33N 47°07' W 002°27'0 0.0
2016-Jul-25 14:33N 47°07' W 002°27'0 0.2
2016-Jul-25 13:33N 47°07' W 002°27'0 0.0
2016-Jul-25 12:31N 47°07' W 002°27'0 0.0
2016-Jul-25 11:29N 47°07' W 002°27'0 0.0
2016-Jul-25 10:29N 47°07' W 002°27'0 0.1
2016-Jul-25 09:32N 47°07' W 002°27'0 0.0
2016-Jul-25 08:32N 47°07' W 002°27'0 0.0
2016-Jul-25 07:31N 47°07' W 002°27'0 0.1
2016-Jul-25 06:31N 47°07' W 002°27'0 0.0
2016-Jul-25 05:30N 47°07' W 002°27'0 0.0
2016-Jul-25 04:31N 47°07' W 002°27'0 0.0
2016-Jul-25 03:31N 47°07' W 002°27'0 0.0
2016-Jul-25 02:29N 47°07' W 002°27'0 0.2
2016-Jul-25 01:31N 47°07' W 002°27'0 0.1
2016-Jul-25 00:31N 47°07' W 002°27'0 0.0
2016-Jul-24 23:31N 47°07' W 002°27'0 0.0
2016-Jul-24 22:29N 47°07' W 002°27'0 0.0
2016-Jul-24 21:31N 47°07' W 002°27'0 0.0
2016-Jul-24 20:31N 47°07' W 002°27'0 0.1
2016-Jul-24 19:31N 47°07' W 002°27'0 0.1
2016-Jul-24 18:31N 47°07' W 002°27'0 0.0
2016-Jul-24 17:31N 47°07' W 002°27'0 0.0
2016-Jul-24 16:31N 47°07' W 002°27'0 0.0
2016-Jul-24 15:31N 47°07' W 002°27'0 0.0
2016-Jul-24 14:31N 47°07' W 002°27'0 0.1
2016-Jul-24 13:31N 47°07' W 002°27'0 0.2
2016-Jul-24 12:31N 47°07' W 002°27'0 0.0
2016-Jul-24 11:31N 47°07' W 002°27'0 0.0
2016-Jul-24 10:31N 47°07' W 002°27'0 0.0
2016-Jul-24 09:31N 47°07' W 002°27'0 0.0
2016-Jul-24 08:31N 47°07' W 002°27'0 0.1
2016-Jul-24 07:33N 47°07' W 002°27'0 0.1
2016-Jul-24 06:34N 47°07' W 002°27'0 0.0
2016-Jul-24 05:31N 47°07' W 002°27'0 0.0
2016-Jul-24 04:33N 47°07' W 002°27'0 0.0
2016-Jul-24 03:33N 47°07' W 002°27'0 0.0
2016-Jul-24 02:33N 47°07' W 002°27'0 0.1
2016-Jul-24 01:27N 47°07' W 002°27'0 0.2
2016-Jul-24 00:33N 47°07' W 002°27'0 0.3
2016-Jul-23 23:34N 47°07' W 002°27'1110.8
2016-Jul-23 22:34N 46°60' W 002°39'1312.6
2016-Jul-23 21:33N 46°47' W 002°40'1313.1
2016-Jul-23 20:33N 46°34' W 002°40'1312.9
2016-Jul-23 19:33N 46°21' W 002°40'1413.2
2016-Jul-23 18:31N 46°07' W 002°40'4413.1
2016-Jul-23 15:08N 45°24' W 002°24'11013.6
2016-Jul-23 07:04N 43°37' W 001°47'713.7
2016-Jul-23 06:33N 43°34' W 001°38'3 0.1
2016-Jul-22 04:33N 43°32' W 001°35'4 4.5
2016-Jul-22 03:33N 43°34' W 001°40'6 6.4
2016-Jul-22 02:33N 43°37' W 001°48'25410.1
2016-Jul-21 01:30N 47°18' W 004°46'4613.3
2016-Jul-20 22:04N 47°58' W 005°20'714.4
2016-Jul-20 21:33N 48°04' W 005°26'12611.3
2016-Jul-20 10:26N 49°46' W 003°33'4912.6
2016-Jul-20 06:34N 50°06' W 002°24'2913.2
2016-Jul-20 04:23N 50°14' W 001°41'1816.0
2016-Jul-20 03:16N 50°19' W 001°14'1217.2
2016-Jul-20 02:33N 50°22' W 000°55'1717.1
2016-Jul-20 01:33N 50°27' W 000°30'1616.0
2016-Jul-20 00:33N 50°31' W 000°05'1514.9
2016-Jul-19 23:33N 50°35' E 000°17'1413.7
2016-Jul-19 22:34N 50°40' E 000°37'1313.4
2016-Jul-19 21:33N 50°48' E 000°55'1414.0
2016-Jul-19 20:33N 50°56' E 001°13'1616.3
2016-Jul-19 19:33N 51°07' E 001°32'1717.0
2016-Jul-19 18:33N 51°22' E 001°44'1515.3
2016-Jul-19 17:33N 51°38' E 001°45'1414.1
2016-Jul-19 16:33N 51°52' E 001°44'1312.7
2016-Jul-19 15:33N 52°04' E 001°48'1312.5
2016-Jul-19 14:30N 52°17' E 001°53'1212.2
2016-Jul-19 13:32N 52°28' E 001°58'1111.8
2016-Jul-19 12:33N 52°40' E 002°02'1211.7
2016-Jul-19 11:33N 52°49' E 001°50'1313.5
2016-Jul-19 10:33N 52°58' E 001°34'1414.2
2016-Jul-19 09:33N 53°10' E 001°20'1514.5
2016-Jul-19 08:33N 53°22' E 001°08'1413.8
2016-Jul-19 07:33N 53°30' E 000°49'  
Track history (hours):
 
Tides and Currents Weather Stations Pressure Air Temp Water Temp Dewpoint Dewpoint Depression Visibility Wind Speed Wind Dir Waves Ship Positions

Chantaco

Last reported at 2016-Jul-29 04:33 UTC. Time now 2016-Jul-29 05:55 UTC.
Position N 47°08' W 002°28'.

Length 143 m; draft 6.5 m.

Type: Tanker. MMSI: 228330700.

Date/timePositionNaut miles runAvg speedWind from/ knotsBaromVisibWave heightAir tempDewpointWater temp
2016-Jul-29 04:33N 47°08' W 002°28'0 0.0
2016-Jul-29 03:34N 47°08' W 002°28'0 0.0
2016-Jul-29 02:33N 47°08' W 002°28'0 0.0
2016-Jul-29 01:33N 47°08' W 002°28'0 0.0
2016-Jul-29 00:33N 47°08' W 002°28'0 0.0
2016-Jul-28 23:30N 47°08' W 002°28'0 0.0
2016-Jul-28 22:32N 47°08' W 002°28'0 0.0
2016-Jul-28 21:33N 47°08' W 002°28'0 0.0
2016-Jul-28 20:33N 47°08' W 002°28'0 0.0
2016-Jul-28 19:30N 47°08' W 002°28'0 0.0
2016-Jul-28 18:30N 47°08' W 002°28'0 0.0
2016-Jul-28 17:33N 47°08' W 002°28'0 0.0
2016-Jul-28 16:32N 47°08' W 002°28'0 0.1
2016-Jul-28 15:30N 47°08' W 002°28'0 0.0
2016-Jul-28 14:32N 47°08' W 002°28'0 0.0
2016-Jul-28 13:32N 47°08' W 002°28'0 0.1
2016-Jul-28 12:32N 47°08' W 002°28'0 0.0
2016-Jul-28 11:30N 47°08' W 002°28'0 0.0
2016-Jul-28 10:33N 47°08' W 002°28'0 0.0
2016-Jul-28 09:33N 47°08' W 002°28'0 0.0
2016-Jul-28 08:32N 47°08' W 002°28'0 0.0
2016-Jul-28 07:32N 47°08' W 002°28'0 0.0
2016-Jul-28 06:33N 47°08' W 002°28'0 0.0
2016-Jul-28 05:33N 47°08' W 002°28'0 0.1
2016-Jul-28 04:32N 47°08' W 002°28'0 0.1
2016-Jul-28 03:33N 47°08' W 002°28'0 0.0
2016-Jul-28 02:26N 47°08' W 002°28'0 0.1
2016-Jul-28 01:33N 47°08' W 002°28'0 0.0
2016-Jul-28 00:32N 47°08' W 002°28'0 0.1
2016-Jul-27 23:32N 47°08' W 002°28'0 0.0
2016-Jul-27 22:33N 47°08' W 002°28'0 0.0
2016-Jul-27 21:33N 47°08' W 002°28'0 0.0
2016-Jul-27 20:32N 47°08' W 002°28'0 0.0
2016-Jul-27 19:33N 47°08' W 002°28'0 0.3
2016-Jul-27 18:34N 47°08' W 002°28'10 9.8
2016-Jul-27 17:33N 47°14' W 002°16'8 4.1
2016-Jul-27 15:32N 47°18' W 002°06'0 0.0
2016-Jul-27 13:26N 47°18' W 002°06'0 0.0
2016-Jul-27 11:32N 47°18' W 002°06'0 0.0
2016-Jul-27 10:14N 47°18' W 002°06'0 0.0
2016-Jul-27 09:29N 47°18' W 002°06'0 0.0
2016-Jul-27 08:32N 47°18' W 002°06'0 0.0
2016-Jul-27 07:26N 47°18' W 002°06'0 0.0
2016-Jul-27 06:32N 47°18' W 002°06'0 0.0
2016-Jul-27 05:32N 47°18' W 002°06'0 0.0
2016-Jul-27 04:32N 47°18' W 002°06'0 0.0
2016-Jul-27 03:32N 47°18' W 002°06'0 0.0
2016-Jul-27 02:32N 47°18' W 002°06'0 0.0
2016-Jul-27 01:32N 47°18' W 002°06'0 0.0
2016-Jul-27 00:32N 47°18' W 002°06'0 0.0
2016-Jul-26 23:32N 47°18' W 002°06'0 0.0
2016-Jul-26 22:32N 47°18' W 002°06'0 0.0
2016-Jul-26 21:32N 47°18' W 002°06'0 0.0
2016-Jul-26 20:32N 47°18' W 002°06'0 0.0
2016-Jul-26 19:32N 47°18' W 002°06'0 0.0
2016-Jul-26 18:32N 47°18' W 002°06'0 0.0
2016-Jul-26 17:23N 47°18' W 002°06'0 0.0
2016-Jul-26 16:23N 47°18' W 002°06'0 0.0
2016-Jul-26 15:20N 47°18' W 002°06'0 0.0
2016-Jul-26 14:26N 47°18' W 002°06'0 0.0
2016-Jul-26 10:29N 47°18' W 002°06'0 0.0
2016-Jul-26 09:32N 47°18' W 002°06'0 0.0
2016-Jul-26 08:33N 47°18' W 002°06'3 2.9
2016-Jul-26 07:33N 47°17' W 002°10'10 9.8
2016-Jul-26 06:33N 47°10' W 002°19'6 5.9
2016-Jul-26 05:32N 47°07' W 002°27'0 0.0
2016-Jul-26 04:33N 47°07' W 002°27'0 0.0
2016-Jul-26 03:33N 47°07' W 002°27'0 0.1
2016-Jul-26 02:29N 47°07' W 002°27'0 0.1
2016-Jul-26 01:29N 47°07' W 002°27'0 0.0
2016-Jul-26 00:33N 47°07' W 002°27'0 0.0
2016-Jul-25 23:34N 47°07' W 002°27'0 0.0
2016-Jul-25 22:29N 47°07' W 002°27'0 0.1
2016-Jul-25 21:33N 47°07' W 002°27'0 0.1
2016-Jul-25 20:30N 47°07' W 002°27'0 0.0
2016-Jul-25 19:33N 47°07' W 002°27'0 0.0
2016-Jul-25 18:31N 47°07' W 002°27'0 0.0
2016-Jul-25 17:31N 47°07' W 002°27'0 0.0
2016-Jul-25 16:33N 47°07' W 002°27'0 0.0
2016-Jul-25 15:33N 47°07' W 002°27'0 0.0
2016-Jul-25 14:33N 47°07' W 002°27'0 0.2
2016-Jul-25 13:33N 47°07' W 002°27'0 0.0
2016-Jul-25 12:31N 47°07' W 002°27'0 0.0
2016-Jul-25 11:29N 47°07' W 002°27'0 0.0
2016-Jul-25 10:29N 47°07' W 002°27'0 0.1
2016-Jul-25 09:32N 47°07' W 002°27'0 0.0
2016-Jul-25 08:32N 47°07' W 002°27'0 0.0
2016-Jul-25 07:31N 47°07' W 002°27'0 0.1
2016-Jul-25 06:31N 47°07' W 002°27'0 0.0
2016-Jul-25 05:30N 47°07' W 002°27'0 0.0
2016-Jul-25 04:31N 47°07' W 002°27'0 0.0
2016-Jul-25 03:31N 47°07' W 002°27'0 0.0
2016-Jul-25 02:29N 47°07' W 002°27'0 0.2
2016-Jul-25 01:31N 47°07' W 002°27'0 0.1
2016-Jul-25 00:31N 47°07' W 002°27'0 0.0
2016-Jul-24 23:31N 47°07' W 002°27'0 0.0
2016-Jul-24 22:29N 47°07' W 002°27'0 0.0
2016-Jul-24 21:31N 47°07' W 002°27'0 0.0
2016-Jul-24 20:31N 47°07' W 002°27'0 0.1
2016-Jul-24 19:31N 47°07' W 002°27'0 0.1
2016-Jul-24 18:31N 47°07' W 002°27'0 0.0
2016-Jul-24 17:31N 47°07' W 002°27'0 0.0
2016-Jul-24 16:31N 47°07' W 002°27'0 0.0
2016-Jul-24 15:31N 47°07' W 002°27'0 0.0
2016-Jul-24 14:31N 47°07' W 002°27'0 0.1
2016-Jul-24 13:31N 47°07' W 002°27'0 0.2
2016-Jul-24 12:31N 47°07' W 002°27'0 0.0
2016-Jul-24 11:31N 47°07' W 002°27'0 0.0
2016-Jul-24 10:31N 47°07' W 002°27'0 0.0
2016-Jul-24 09:31N 47°07' W 002°27'0 0.0
2016-Jul-24 08:31N 47°07' W 002°27'0 0.1
2016-Jul-24 07:33N 47°07' W 002°27'0 0.1
2016-Jul-24 06:34N 47°07' W 002°27'0 0.0
2016-Jul-24 05:31N 47°07' W 002°27'0 0.0
2016-Jul-24 04:33N 47°07' W 002°27'0 0.0
2016-Jul-24 03:33N 47°07' W 002°27'0 0.0
2016-Jul-24 02:33N 47°07' W 002°27'0 0.1
2016-Jul-24 01:27N 47°07' W 002°27'0 0.2
2016-Jul-24 00:33N 47°07' W 002°27'0 0.3
2016-Jul-23 23:34N 47°07' W 002°27'1110.8
2016-Jul-23 22:34N 46°60' W 002°39'1312.6
2016-Jul-23 21:33N 46°47' W 002°40'1313.1
2016-Jul-23 20:33N 46°34' W 002°40'1312.9
2016-Jul-23 19:33N 46°21' W 002°40'1413.2
2016-Jul-23 18:31N 46°07' W 002°40'4413.1
2016-Jul-23 15:08N 45°24' W 002°24'11013.6
2016-Jul-23 07:04N 43°37' W 001°47'713.7
2016-Jul-23 06:33N 43°34' W 001°38'3 0.1
2016-Jul-22 04:33N 43°32' W 001°35'4 4.5
2016-Jul-22 03:33N 43°34' W 001°40'6 6.4
2016-Jul-22 02:33N 43°37' W 001°48'25410.1
2016-Jul-21 01:30N 47°18' W 004°46'4613.3
2016-Jul-20 22:04N 47°58' W 005°20'714.4
2016-Jul-20 21:33N 48°04' W 005°26'12611.3
2016-Jul-20 10:26N 49°46' W 003°33'4912.6
2016-Jul-20 06:34N 50°06' W 002°24'2913.2
2016-Jul-20 04:23N 50°14' W 001°41'1816.0
2016-Jul-20 03:16N 50°19' W 001°14'1217.2
2016-Jul-20 02:33N 50°22' W 000°55'1717.1
2016-Jul-20 01:33N 50°27' W 000°30'1616.0
2016-Jul-20 00:33N 50°31' W 000°05'1514.9
2016-Jul-19 23:33N 50°35' E 000°17'1413.7
2016-Jul-19 22:34N 50°40' E 000°37'1313.4
2016-Jul-19 21:33N 50°48' E 000°55'1414.0
2016-Jul-19 20:33N 50°56' E 001°13'1616.3
2016-Jul-19 19:33N 51°07' E 001°32'1717.0
2016-Jul-19 18:33N 51°22' E 001°44'1515.3
2016-Jul-19 17:33N 51°38' E 001°45'1414.1
2016-Jul-19 16:33N 51°52' E 001°44'1312.7
2016-Jul-19 15:33N 52°04' E 001°48'1312.5
2016-Jul-19 14:30N 52°17' E 001°53'1212.2
2016-Jul-19 13:32N 52°28' E 001°58'1111.8
2016-Jul-19 12:33N 52°40' E 002°02'1211.7
2016-Jul-19 11:33N 52°49' E 001°50'1313.5
2016-Jul-19 10:33N 52°58' E 001°34'1414.2
2016-Jul-19 09:33N 53°10' E 001°20'1514.5
2016-Jul-19 08:33N 53°22' E 001°08'1413.8
2016-Jul-19 07:33N 53°30' E 000°49'  

Dump ship's entire track history